createdAt,value
2022-11-21T00:00:00.342Z,5.6
2022-11-21T00:05:00.410Z,5.6
2022-11-21T00:10:00.445Z,5.6
2022-11-21T00:15:00.396Z,5.6
2022-11-21T00:20:00.368Z,5.6
2022-11-21T00:25:00.357Z,5.6
2022-11-21T00:30:00.421Z,5.6
2022-11-21T00:35:00.376Z,5.6
2022-11-21T00:40:00.449Z,5.6
2022-11-21T00:45:00.397Z,5.6
2022-11-21T00:50:00.402Z,5.7
2022-11-21T00:55:00.464Z,5.7
2022-11-21T01:00:00.384Z,5.7
2022-11-21T01:05:00.404Z,5.7
2022-11-21T01:10:00.431Z,5.7
2022-11-21T01:15:00.379Z,5.8
2022-11-21T01:20:00.489Z,5.8
2022-11-21T01:25:00.470Z,5.7
2022-11-21T01:30:00.406Z,5.7
2022-11-21T01:35:00.392Z,5.7
2022-11-21T01:40:00.350Z,5.7
2022-11-21T01:45:00.439Z,5.7
2022-11-21T01:50:00.383Z,5.7
2022-11-21T01:55:00.409Z,5.7
2022-11-21T02:00:00.457Z,5.7
2022-11-21T02:05:00.413Z,5.6
2022-11-21T02:10:00.475Z,5.7
2022-11-21T02:15:00.353Z,5.7
2022-11-21T02:20:00.376Z,5.6
2022-11-21T02:25:00.373Z,5.6
2022-11-21T02:30:00.375Z,5.6
2022-11-21T02:35:00.387Z,5.6
2022-11-21T02:40:00.451Z,5.6
2022-11-21T02:45:00.480Z,5.6
2022-11-21T02:50:00.365Z,5.6
2022-11-21T02:55:00.397Z,5.6
2022-11-21T03:00:00.386Z,5.6
2022-11-21T03:05:00.332Z,5.6
2022-11-21T03:10:00.373Z,5.6
2022-11-21T03:15:00.349Z,5.6
2022-11-21T03:30:00.427Z,5.6
2022-11-21T03:35:00.439Z,5.7
2022-11-21T03:40:00.376Z,5.7
2022-11-21T03:45:00.355Z,5.7
2022-11-21T03:50:00.368Z,5.7
2022-11-21T03:55:00.385Z,5.7
2022-11-21T04:00:00.350Z,5.7
2022-11-21T04:05:00.415Z,5.7
2022-11-21T04:10:00.412Z,5.7
2022-11-21T04:15:00.449Z,5.7
2022-11-21T04:20:00.459Z,5.7
2022-11-21T04:25:00.452Z,5.7
2022-11-21T04:30:00.366Z,5.7
2022-11-21T04:35:00.448Z,5.7
2022-11-21T04:40:00.400Z,5.7
2022-11-21T04:45:00.456Z,5.7
2022-11-21T04:50:00.422Z,5.7
2022-11-21T04:55:00.412Z,5.7
2022-11-21T05:00:00.453Z,5.7
2022-11-21T05:05:00.389Z,5.6
2022-11-21T05:10:00.391Z,5.6
2022-11-21T05:15:00.411Z,5.5
2022-11-21T05:20:00.457Z,5.5
2022-11-21T05:25:00.395Z,5.5
2022-11-21T05:30:00.604Z,5.6
2022-11-21T05:35:00.437Z,5.6
2022-11-21T05:40:00.381Z,5.6
2022-11-21T05:45:00.390Z,5.6
2022-11-21T05:50:00.363Z,5.7
2022-11-21T05:55:00.343Z,5.7
2022-11-21T06:00:00.418Z,5.6
2022-11-21T06:05:00.404Z,5.6
2022-11-21T06:10:00.371Z,5.6
2022-11-21T06:15:00.396Z,5.6
2022-11-21T06:20:00.405Z,5.7
2022-11-21T06:25:00.394Z,5.7
2022-11-21T06:30:00.386Z,5.7
2022-11-21T06:35:00.419Z,5.7
2022-11-21T06:40:00.469Z,5.7
2022-11-21T06:45:00.426Z,5.7
2022-11-21T06:50:00.391Z,5.7
2022-11-21T06:55:00.420Z,5.7
2022-11-21T07:00:00.424Z,5.6
2022-11-21T07:05:00.390Z,5.7
2022-11-21T07:10:00.421Z,5.7
2022-11-21T07:15:00.367Z,5.7
2022-11-21T07:20:00.367Z,5.7
2022-11-21T07:25:00.407Z,5.7
2022-11-21T07:30:00.390Z,5.7
2022-11-21T07:35:00.430Z,5.7
2022-11-21T07:40:00.438Z,5.7
2022-11-21T07:45:00.377Z,5.7
2022-11-21T07:50:00.330Z,5.7
2022-11-21T07:55:00.403Z,5.7
2022-11-21T08:00:00.400Z,5.6
2022-11-21T08:05:00.401Z,5.7
2022-11-21T08:10:00.413Z,5.7
2022-11-21T08:15:00.379Z,5.6
2022-11-21T08:20:00.349Z,5.7
2022-11-21T08:25:00.397Z,5.8
2022-11-21T08:30:00.347Z,5.8
2022-11-21T08:35:00.411Z,6
2022-11-21T08:40:00.428Z,6
2022-11-21T08:45:00.369Z,5.9
2022-11-21T08:50:04.442Z,5.9
2022-11-21T08:55:00.343Z,5.9
2022-11-21T09:00:00.441Z,6
2022-11-21T09:05:00.381Z,5.9
2022-11-21T09:10:00.362Z,5.9
2022-11-21T09:15:00.382Z,6.1
2022-11-21T09:20:00.464Z,6
2022-11-21T09:25:00.364Z,5.9
2022-11-21T09:30:00.354Z,6
2022-11-21T09:35:00.354Z,6
2022-11-21T09:40:00.397Z,5.9
2022-11-21T09:45:00.401Z,6
2022-11-21T09:50:00.398Z,5.8
2022-11-21T09:55:00.315Z,5.9
2022-11-21T10:00:00.375Z,6
2022-11-21T10:05:00.375Z,5.9
2022-11-21T10:10:00.422Z,5.7
2022-11-21T10:15:00.404Z,5.8
2022-11-21T10:20:00.443Z,5.9
2022-11-21T10:25:00.454Z,5.8
2022-11-21T10:30:00.441Z,5.8
2022-11-21T10:35:00.412Z,5.9
2022-11-21T10:40:00.359Z,5.9
2022-11-21T10:45:00.381Z,5.9
2022-11-21T10:50:00.438Z,5.8
2022-11-21T10:55:00.383Z,5.8
2022-11-21T11:00:00.422Z,5.8
2022-11-21T11:05:00.632Z,5.9
2022-11-21T11:10:00.415Z,6
2022-11-21T11:15:00.361Z,5.9
2022-11-21T11:20:00.722Z,6
2022-11-21T11:25:01.147Z,5.9
2022-11-21T11:30:00.406Z,5.9
2022-11-21T11:35:00.416Z,5.8
2022-11-21T11:40:00.384Z,6
2022-11-21T11:45:00.415Z,6.1
2022-11-21T11:50:00.435Z,6
2022-11-21T11:55:00.381Z,6
2022-11-21T12:00:00.433Z,5.8
2022-11-21T12:05:00.417Z,6.1
2022-11-21T12:10:00.393Z,6
2022-11-21T12:15:00.414Z,6
2022-11-21T12:20:00.402Z,6
2022-11-21T12:25:00.547Z,6
2022-11-21T12:30:00.409Z,6
2022-11-21T12:35:00.403Z,5.8
2022-11-21T12:40:00.404Z,5.7
2022-11-21T12:45:00.364Z,5.7
2022-11-21T12:50:00.412Z,5.7
2022-11-21T12:55:00.376Z,5.8
2022-11-21T13:00:00.480Z,5.7
2022-11-21T13:05:00.407Z,5.7
2022-11-21T13:10:00.402Z,5.8
2022-11-21T13:15:00.446Z,5.8
2022-11-21T13:20:00.438Z,5.8
2022-11-21T13:25:00.401Z,5.8
2022-11-21T13:30:00.405Z,5.7
2022-11-21T13:35:00.380Z,5.7
2022-11-21T13:40:00.429Z,5.7
2022-11-21T13:45:00.522Z,5.9
2022-11-21T13:50:00.398Z,5.8
2022-11-21T13:55:00.433Z,5.8
2022-11-21T14:00:00.355Z,5.8
2022-11-21T14:05:00.450Z,5.7
2022-11-21T14:10:00.404Z,5.7
2022-11-21T14:15:00.374Z,5.7
2022-11-21T14:20:00.323Z,5.6
2022-11-21T14:25:00.399Z,5.8
2022-11-21T14:30:00.440Z,5.8
2022-11-21T14:35:00.337Z,5.8
2022-11-21T14:40:00.419Z,5.9
2022-11-21T14:45:00.352Z,5.7
2022-11-21T14:50:05.441Z,5.7
2022-11-21T14:55:28.366Z,5.9
2022-11-21T15:00:00.447Z,5.9
2022-11-21T15:05:00.404Z,5.9
2022-11-21T15:10:29.647Z,5.9
2022-11-21T15:15:00.402Z,5.9
2022-11-21T15:20:00.427Z,5.8
2022-11-21T15:25:00.403Z,5.9
2022-11-21T15:30:00.413Z,5.8
2022-11-21T15:35:00.397Z,5.8
2022-11-21T15:40:00.396Z,5.7
2022-11-21T15:45:00.446Z,5.6
2022-11-21T15:50:00.540Z,5.5
2022-11-21T15:55:00.418Z,5.5
2022-11-21T16:00:00.514Z,5.6
2022-11-21T16:05:00.548Z,5.6
2022-11-21T16:10:00.393Z,5.6
2022-11-21T16:15:00.389Z,5.6
2022-11-21T16:20:00.426Z,5.6
2022-11-21T16:25:00.316Z,5.6
2022-11-21T16:30:00.407Z,5.7
2022-11-21T16:35:00.425Z,5.6
2022-11-21T16:40:00.387Z,5.7
2022-11-21T16:45:00.422Z,5.7
2022-11-21T16:50:00.412Z,5.7
2022-11-21T16:55:00.456Z,5.7
2022-11-21T17:00:00.664Z,5.7
2022-11-21T17:05:00.483Z,5.6
2022-11-21T17:10:00.432Z,5.6
2022-11-21T17:15:00.424Z,5.6
2022-11-21T17:20:00.431Z,5.6
2022-11-21T17:25:00.466Z,5.6
2022-11-21T17:30:00.449Z,5.6
2022-11-21T17:35:00.392Z,5.6
2022-11-21T17:40:00.402Z,5.7
2022-11-21T17:45:00.351Z,5.7
2022-11-21T17:50:05.500Z,5.7
2022-11-21T17:55:00.332Z,5.7
2022-11-21T18:00:00.376Z,5.7
2022-11-21T18:05:00.386Z,5.7
2022-11-21T18:10:14.534Z,5.7
2022-11-21T18:15:00.421Z,5.7
2022-11-21T18:20:00.335Z,5.7
2022-11-21T18:25:00.415Z,5.7
2022-11-21T18:30:00.778Z,5.7
2022-11-21T18:35:00.470Z,5.7
2022-11-21T18:40:00.423Z,5.6
2022-11-21T18:45:00.651Z,5.7
2022-11-21T18:50:00.378Z,5.6
2022-11-21T18:55:00.388Z,5.6
2022-11-21T19:00:00.413Z,5.7
2022-11-21T19:05:00.425Z,5.7
2022-11-21T19:10:20.556Z,5.7
2022-11-21T19:15:00.415Z,5.7
2022-11-21T19:20:00.451Z,5.7
2022-11-21T19:25:00.358Z,5.7
2022-11-21T19:30:00.393Z,5.7
2022-11-21T19:35:00.295Z,5.7
2022-11-21T19:40:00.372Z,5.7
2022-11-21T19:45:00.366Z,5.7
2022-11-21T19:50:00.384Z,5.8
2022-11-21T19:55:00.396Z,5.8
2022-11-21T20:00:00.333Z,5.8
2022-11-21T20:05:00.385Z,5.8
2022-11-21T20:10:00.417Z,5.8
2022-11-21T20:15:00.431Z,5.9
2022-11-21T20:20:00.414Z,5.9
2022-11-21T20:25:00.464Z,6
2022-11-21T20:30:00.413Z,6
2022-11-21T20:35:00.472Z,6
2022-11-21T20:40:00.487Z,6
2022-11-21T20:50:00.347Z,6
2022-11-21T20:55:00.633Z,6
2022-11-21T21:00:00.463Z,6
2022-11-21T21:05:00.403Z,6
2022-11-21T21:10:00.419Z,6
2022-11-21T21:15:00.355Z,6
2022-11-21T21:20:00.426Z,6
2022-11-21T21:25:00.427Z,6
2022-11-21T21:30:00.439Z,6
2022-11-21T21:35:00.447Z,6
2022-11-21T21:40:00.428Z,6.1
2022-11-21T21:45:00.462Z,6.1
2022-11-21T21:50:00.340Z,6.1
2022-11-21T21:55:00.438Z,6.1
2022-11-21T22:00:00.379Z,6.2
2022-11-21T22:05:00.418Z,6.2
2022-11-21T22:10:00.375Z,6.2
2022-11-21T22:15:00.401Z,6.2
2022-11-21T22:20:00.427Z,6.2
2022-11-21T22:25:00.516Z,6.2
2022-11-21T22:30:00.389Z,6.1
2022-11-21T22:35:00.350Z,6.2
2022-11-21T22:40:00.449Z,6.2
2022-11-21T22:45:00.424Z,6.1
2022-11-21T22:50:00.543Z,6.2
2022-11-21T22:55:00.362Z,6.1
2022-11-21T23:00:00.435Z,6.1
2022-11-21T23:05:00.351Z,6.1
2022-11-21T23:10:00.468Z,6.1
2022-11-21T23:15:00.442Z,6.1
2022-11-21T23:20:00.411Z,6.2
2022-11-21T23:25:00.458Z,6.2
2022-11-21T23:30:00.440Z,6.2
2022-11-21T23:35:00.530Z,6.2
2022-11-21T23:40:00.535Z,6.2
2022-11-21T23:45:00.478Z,6.2
2022-11-21T23:50:00.362Z,6.2
2022-11-21T23:55:00.445Z,6.2
